Time;durP1;ratioP1;P1;durP2;ratioP2;P2;SDS_P1;SDS_P2;PMS_P1;PMS_P2;Temp;Humidity;BMP_temperature;BMP_pressure;BME280_temperature;BME280_humidity;BME280_pressure;Samples;Min_cycle;Max_cycle;Signal;HPM_P1;HPM_P2
2022/11/04 00:00:07;;;;;;;1.15;0.40;;;;;;;14.96;39.33;102186.19;4992141;28;20045;-45
2022/11/04 00:02:33;;;;;;;1.20;0.35;;;;;;;15.01;38.57;102205.28;4991310;28;20030;-45
2022/11/04 00:04:59;;;;;;;2.30;0.32;;;;;;;15.04;39.17;102206.72;4991862;28;20027;-45
2022/11/04 00:10:10;;;;;;;0.80;0.47;;;;;;;14.94;39.34;102222.47;4992370;28;20029;-46
2022/11/04 00:12:36;;;;;;;1.20;0.40;;;;;;;14.80;40.06;102221.56;4993130;28;20037;-45
2022/11/04 00:17:18;;;;;;;1.98;0.50;;;;;;;14.75;39.82;102226.72;4995498;28;20031;-45
2022/11/04 00:17:48;;;;;;;1.50;0.50;;;;;;;14.68;39.76;102231.25;4995469;28;20387;-46
2022/11/04 00:28:43;;;;;;;1.58;0.47;;;;;;;14.68;39.76;102210.53;4995388;28;20041;-46
2022/11/04 00:33:56;;;;;;;0.73;0.50;;;;;;;14.50;40.19;102202.16;4958539;28;20090;-45
2022/11/04 00:36:25;;;;;;;1.17;0.60;;;;;;;14.51;40.18;102210.03;4955966;28;20030;-50
2022/11/04 00:38:52;;;;;;;1.85;0.85;;;;;;;14.48;40.07;102218.50;4955753;28;20476;-46
2022/11/04 00:41:28;;;;;;;1.42;0.50;;;;;;;14.43;39.80;102214.69;4972234;28;20120;-47
2022/11/04 00:43:59;;;;;;;2.17;0.47;;;;;;;14.36;39.95;102222.75;4974572;28;20051;-49
2022/11/04 00:46:27;;;;;;;1.05;0.50;;;;;;;14.39;39.95;102218.84;4964238;28;20027;-47
2022/11/04 00:48:54;;;;;;;1.30;0.50;;;;;;;14.41;39.67;102211.38;4968260;28;20046;-48
2022/11/04 00:51:20;;;;;;;2.22;0.50;;;;;;;14.32;39.89;102218.75;4967535;28;20118;-49
2022/11/04 00:53:47;;;;;;;4.95;0.60;;;;;;;14.33;39.77;102215.06;4973719;28;20035;-49
2022/11/04 00:56:13;;;;;;;1.55;0.63;;;;;;;14.34;40.01;102215.91;4966137;28;20054;-49
2022/11/04 00:58:40;;;;;;;1.13;0.60;;;;;;;14.19;40.59;102216.00;4959973;28;20039;-52
2022/11/04 01:01:11;;;;;;;1.50;0.50;;;;;;;13.95;41.52;102217.28;4954485;28;20480;-49
2022/11/04 01:03:37;;;;;;;2.47;0.63;;;;;;;13.82;41.73;102220.66;4955275;28;20038;-47
2022/11/04 01:06:04;;;;;;;1.42;0.50;;;;;;;13.86;41.21;102213.88;4974932;28;20030;-50
2022/11/04 01:08:30;;;;;;;1.92;0.60;;;;;;;13.99;41.17;102216.69;4975240;28;20022;-49
2022/11/04 01:11:04;;;;;;;1.40;0.55;;;;;;;13.68;42.15;102222.41;4962546;28;20059;-47
2022/11/04 01:13:30;;;;;;;1.40;0.50;;;;;;;13.84;41.77;102224.00;4963353;28;20046;-44
2022/11/04 01:16:02;;;;;;;2.80;0.93;;;;;;;13.82;41.79;102234.13;4966215;28;20030;-43
2022/11/04 01:18:28;;;;;;;3.80;0.52;;;;;;;13.65;41.73;102243.47;4971823;28;20031;-43
2022/11/04 01:20:54;;;;;;;2.00;0.50;;;;;;;13.54;42.12;102250.19;4972798;28;20038;-46
2022/11/04 01:23:21;;;;;;;2.58;0.57;;;;;;;13.61;41.42;102243.06;4972809;28;20022;-46
2022/11/04 01:25:47;;;;;;;2.63;0.43;;;;;;;13.62;41.61;102241.19;4973666;28;20022;-46
2022/11/04 01:28:13;;;;;;;1.75;0.60;;;;;;;13.58;41.79;102239.91;4973421;28;20472;-44
2022/11/04 01:30:39;;;;;;;2.28;0.68;;;;;;;13.53;41.52;102245.84;4972796;28;20035;-48
2022/11/04 01:33:05;;;;;;;2.17;0.80;;;;;;;13.35;42.35;102238.22;4955233;28;20118;-50
2022/11/04 01:35:32;;;;;;;5.03;0.70;;;;;;;13.18;42.86;102256.41;4975446;28;20471;-46
2022/11/04 01:37:58;;;;;;;1.13;0.60;;;;;;;13.12;42.92;102250.94;4987223;23;20047;-46
2022/11/04 01:40:24;;;;;;;2.80;0.77;;;;;;;13.02;43.08;102248.56;4979754;28;20034;-47
2022/11/04 01:42:51;;;;;;;3.38;0.80;;;;;;;12.89;43.35;102249.22;4977207;28;20039;-47
2022/11/04 01:45:20;;;;;;;2.67;0.73;;;;;;;12.91;43.93;102252.53;5013714;28;20022;-47
2022/11/04 01:47:57;;;;;;;1.33;0.90;;;;;;;12.86;43.66;102256.81;4978484;28;20093;-47
2022/11/04 01:50:28;;;;;;;3.00;0.90;;;;;;;12.72;44.96;102255.81;4990369;28;20026;-47
2022/11/04 01:53:06;;;;;;;3.33;0.93;;;;;;;12.79;45.19;102256.72;4984960;28;20086;-48
2022/11/04 01:55:36;;;;;;;2.40;1.15;;;;;;;12.73;45.80;102260.16;4988016;28;20440;-47
2022/11/04 01:58:08;;;;;;;3.03;1.20;;;;;;;12.58;46.11;102268.22;4989738;28;20034;-47
2022/11/04 02:00:37;;;;;;;3.65;1.20;;;;;;;12.50;46.60;102270.16;4985801;28;20026;-47
2022/11/04 02:03:14;;;;;;;3.78;1.52;;;;;;;12.47;47.08;102271.34;4983002;28;20026;-51
2022/11/04 02:05:41;;;;;;;3.00;1.20;;;;;;;12.39;47.32;102280.34;4994214;28;20038;-47
2022/11/04 02:08:10;;;;;;;3.88;1.40;;;;;;;12.18;48.22;102276.66;4993225;28;20390;-48
2022/11/04 02:10:39;;;;;;;4.75;1.10;;;;;;;11.94;49.13;102285.75;4993873;28;20104;-48
2022/11/04 02:13:05;;;;;;;2.45;1.00;;;;;;;12.05;48.79;102282.66;4992506;28;20057;-47
2022/11/04 02:15:54;;;;;;;3.40;1.40;;;;;;;12.09;48.79;102287.47;4992538;28;20026;-49
2022/11/04 02:18:47;;;;;;;6.63;1.23;;;;;;;12.01;49.06;102292.09;4993572;28;20058;-51
2022/11/04 02:21:25;;;;;;;5.90;1.23;;;;;;;11.83;50.19;102290.53;4991125;28;20117;-50
2022/11/04 02:24:14;;;;;;;2.65;1.15;;;;;;;11.76;50.48;102284.16;4992114;28;20037;-51
2022/11/04 02:26:46;;;;;;;1.70;1.08;;;;;;;11.67;50.94;102277.22;4992314;28;20034;-49
2022/11/04 02:29:17;;;;;;;3.00;0.90;;;;;;;11.80;50.59;102279.28;4993209;28;20042;-48
2022/11/04 02:31:56;;;;;;;2.08;0.80;;;;;;;12.02;50.46;102283.00;4992340;28;20030;-50
2022/11/04 02:34:40;;;;;;;4.97;1.27;;;;;;;12.21;50.12;102292.41;4986703;28;20028;-51
2022/11/04 02:37:23;;;;;;;3.60;1.13;;;;;;;11.89;50.85;102300.56;4972995;28;20093;-49
2022/11/04 02:40:00;;;;;;;3.00;1.35;;;;;;;11.55;52.02;102308.13;4980461;28;20041;-52
2022/11/04 02:42:48;;;;;;;3.45;1.38;;;;;;;11.29;52.56;102314.63;4992966;28;20054;-49
2022/11/04 02:45:25;;;;;;;3.72;1.38;;;;;;;11.00;54.22;102320.59;4991896;28;20030;-51
2022/11/04 02:48:02;;;;;;;6.80;1.63;;;;;;;10.70;55.27;102319.50;4993566;28;20034;-50
2022/11/04 02:50:51;;;;;;;3.25;2.15;;;;;;;10.34;56.84;102316.38;4992361;28;20084;-51
2022/11/04 02:53:30;;;;;;;3.60;1.50;;;;;;;9.66;59.71;102320.16;4992715;28;20037;-49
2022/11/04 02:55:59;;;;;;;4.60;1.23;;;;;;;9.71;60.18;102320.47;4991691;28;20034;-49
2022/11/04 02:58:37;;;;;;;3.45;1.20;;;;;;;9.97;59.33;102316.84;4991914;28;20372;-52
2022/11/04 03:01:06;;;;;;;2.83;1.40;;;;;;;9.81;60.17;102327.50;4993174;28;20031;-51
2022/11/04 03:03:38;;;;;;;4.82;1.90;;;;;;;9.76;60.07;102319.97;4990486;28;20026;-50
2022/11/04 03:06:07;;;;;;;3.08;1.60;;;;;;;9.88;59.90;102324.00;4992699;28;20027;-49
2022/11/04 03:08:48;;;;;;;4.22;1.48;;;;;;;9.46;61.11;102335.63;4984170;28;20037;-50
2022/11/04 03:11:20;;;;;;;5.63;2.97;;;;;;;9.29;62.06;102338.41;4972621;28;20042;-48
2022/11/04 03:13:50;;;;;;;7.53;4.22;;;;;;;9.05;63.04;102336.44;4985672;28;20149;-50
2022/11/04 03:16:26;;;;;;;12.02;5.07;;;;;;;8.79;63.88;102347.16;4992471;28;20019;-49
2022/11/04 03:19:07;;;;;;;8.98;3.60;;;;;;;8.64;64.47;102347.72;4991582;28;20555;-50
2022/11/04 03:21:40;;;;;;;6.38;2.85;;;;;;;8.69;64.38;102356.09;4992684;28;20069;-52
2022/11/04 03:24:06;;;;;;;3.38;2.45;;;;;;;8.86;63.95;102354.38;4991280;28;20093;-50
2022/11/04 03:26:48;;;;;;;7.82;2.30;;;;;;;8.87;64.05;102349.84;4992537;28;20041;-48
2022/11/04 03:29:20;;;;;;;3.88;1.63;;;;;;;8.87;64.26;102355.19;4991464;28;20027;-49
2022/11/04 03:31:56;;;;;;;4.20;1.50;;;;;;;8.96;63.93;102359.59;4991825;28;20391;-48
2022/11/04 03:34:22;;;;;;;;;;;;;;;8.78;64.80;102358.84;4991867;28;20062;-48
2022/11/04 03:36:48;;;;;;;7.82;3.67;;;;;;;8.89;64.38;102363.91;4992249;28;19917;-49
2022/11/04 03:39:14;;;;;;;5.38;2.70;;;;;;;8.48;65.30;102363.59;4990158;28;20022;-50
2022/11/04 03:41:48;;;;;;;8.40;4.15;;;;;;;8.30;66.04;102374.28;4989036;28;20044;-49
2022/11/04 03:44:14;;;;;;;9.70;3.30;;;;;;;8.20;66.52;102362.84;4990017;28;20034;-48
2022/11/04 03:46:41;;;;;;;5.38;2.17;;;;;;;8.08;67.04;102354.22;4990237;28;20053;-48
2022/11/04 03:49:08;;;;;;;6.35;2.10;;;;;;;8.11;67.15;102353.94;4983417;28;20037;-50
2022/11/04 03:51:34;;;;;;;3.50;1.80;;;;;;;8.23;66.84;102351.03;4991104;28;20042;-48
2022/11/04 03:54:00;;;;;;;7.32;1.60;;;;;;;7.94;67.61;102349.44;4985136;28;20479;-49
2022/11/04 03:56:38;;;;;;;7.13;1.70;;;;;;;7.85;67.64;102359.19;4994528;28;20045;-47
2022/11/04 03:59:22;;;;;;;12.70;1.90;;;;;;;7.88;67.46;102360.69;4995755;28;20026;-51
2022/11/04 04:02:06;;;;;;;5.38;1.70;;;;;;;7.76;67.80;102348.56;4994101;28;20788;-47
2022/11/04 04:04:39;;;;;;;4.03;1.50;;;;;;;7.65;68.22;102345.13;4995671;28;20096;-50
2022/11/04 04:07:23;;;;;;;3.67;1.38;;;;;;;7.57;68.39;102350.38;4986684;28;20041;-46
2022/11/04 04:10:37;;;;;;;6.28;1.85;;;;;;;7.46;68.20;102344.41;4994844;28;20085;-46
2022/11/04 04:12:50;;;;;;;5.60;1.60;;;;;;;7.50;68.06;102349.31;4993204;28;20077;-46
2022/11/04 04:15:26;;;;;;;5.82;1.80;;;;;;;7.50;67.96;102357.31;4995424;28;20029;-46
2022/11/04 04:18:00;;;;;;;2.38;1.40;;;;;;;7.36;68.37;102355.13;4994231;28;20022;-45
2022/11/04 04:20:29;;;;;;;2.38;1.30;;;;;;;7.46;67.99;102352.41;4995248;28;20471;-46
2022/11/04 04:23:02;;;;;;;4.55;1.25;;;;;;;7.35;68.36;102370.25;4994069;28;20073;-45
2022/11/04 04:28:17;;;;;;;3.28;1.02;;;;;;;7.34;67.94;102370.41;4990828;28;20557;-45
2022/11/04 04:30:45;;;;;;;3.38;1.52;;;;;;;7.39;67.76;102373.47;4994390;28;20034;-47
2022/11/04 04:33:17;;;;;;;3.85;1.80;;;;;;;7.38;67.85;102369.97;4994408;28;20026;-45
2022/11/04 04:35:52;;;;;;;3.78;1.48;;;;;;;7.39;67.40;102369.00;4995040;28;20025;-46
2022/11/04 04:47:18;;;;;;;;;;;;;;;7.24;67.64;102388.25;4991770;28;20489;-47
2022/11/04 04:49:59;;;;;;;3.88;1.45;;;;;;;7.24;67.66;102391.75;4994833;28;19982;-50
2022/11/04 04:52:31;;;;;;;3.63;1.58;;;;;;;7.26;67.38;102403.09;4992506;28;20116;-46
2022/11/04 04:54:57;;;;;;;3.60;1.20;;;;;;;7.28;67.42;102397.66;4994815;28;20065;-49
2022/11/04 04:57:23;;;;;;;3.97;1.35;;;;;;;7.37;67.06;102402.06;4991493;28;20026;-46
2022/11/04 04:59:50;;;;;;;6.35;1.52;;;;;;;7.31;66.90;102410.66;4994640;28;20029;-47
2022/11/04 05:02:16;;;;;;;7.72;1.40;;;;;;;7.30;67.09;102417.81;4993194;28;20035;-46
2022/11/04 05:04:42;;;;;;;1.95;0.90;;;;;;;7.20;66.87;102414.34;4994409;28;20110;-48
2022/11/04 05:07:08;;;;;;;3.15;0.90;;;;;;;7.37;66.57;102402.91;4992519;28;20038;-49
2022/11/04 05:09:35;;;;;;;2.50;0.68;;;;;;;7.18;66.24;102405.66;4994375;28;20041;-47
2022/11/04 05:12:01;;;;;;;4.55;1.20;;;;;;;7.00;66.48;102397.59;4992039;28;20105;-48
2022/11/04 05:14:29;;;;;;;3.95;1.33;;;;;;;7.02;66.87;102392.94;4994500;28;20120;-47
2022/11/04 05:16:55;;;;;;;5.07;1.70;;;;;;;6.96;67.24;102393.53;4993000;28;20045;-49
2022/11/04 05:19:22;;;;;;;1.80;1.00;;;;;;;7.10;67.25;102395.72;4994294;28;20522;-49
2022/11/04 05:21:48;;;;;;;4.65;1.08;;;;;;;7.18;66.38;102395.00;4991854;28;20089;-51
2022/11/04 05:24:14;;;;;;;1.20;0.70;;;;;;;7.04;66.59;102398.13;4992961;28;20088;-54
2022/11/04 05:26:40;;;;;;;2.65;0.90;;;;;;;6.99;67.12;102401.22;4992982;28;20018;-54
2022/11/04 05:29:07;;;;;;;2.00;0.90;;;;;;;6.98;66.72;102396.03;4993117;28;20046;-53
2022/11/04 05:31:34;;;;;;;1.77;0.70;;;;;;;7.12;66.30;102396.44;4993772;28;20026;-52
2022/11/04 05:34:00;;;;;;;2.63;1.02;;;;;;;7.00;66.09;102389.59;4993039;28;20522;-49
2022/11/04 05:36:26;;;;;;;1.55;0.85;;;;;;;7.00;66.15;102381.63;4994040;28;20073;-49
2022/11/04 05:38:56;;;;;;;2.95;1.02;;;;;;;7.11;65.62;102377.94;4991781;28;20049;-47
2022/11/04 05:41:25;;;;;;;2.47;1.00;;;;;;;7.01;65.61;102372.66;4992437;28;20085;-47
2022/11/04 05:43:56;;;;;;;2.67;0.80;;;;;;;6.95;65.61;102378.56;4992417;28;20034;-48
2022/11/04 05:46:23;;;;;;;3.78;1.00;;;;;;;6.82;65.71;102370.03;4993891;28;20533;-50
2022/11/04 05:48:50;;;;;;;1.25;0.73;;;;;;;6.68;66.10;102357.19;4993101;28;20387;-49
2022/11/04 05:51:21;;;;;;;2.65;1.10;;;;;;;6.79;66.00;102354.34;4993946;28;20037;-48
2022/11/04 05:53:47;;;;;;;1.30;0.70;;;;;;;6.73;65.87;102355.78;4992265;28;20034;-47
2022/11/04 05:56:13;;;;;;;2.95;0.90;;;;;;;6.69;66.25;102375.66;4993808;28;20027;-47
2022/11/04 05:58:40;;;;;;;2.28;1.08;;;;;;;6.61;65.85;102400.34;4992428;28;20027;-48
2022/11/04 06:01:24;;;;;;;2.63;1.20;;;;;;;6.76;65.82;102408.69;4993501;28;20085;-47
2022/11/04 06:03:51;;;;;;;1.85;0.90;;;;;;;7.02;64.94;102414.25;4992426;28;20023;-47
2022/11/04 06:06:18;;;;;;;2.40;0.95;;;;;;;7.16;64.56;102420.94;4993572;28;20653;-47
2022/11/04 06:08:45;;;;;;;2.15;0.77;;;;;;;7.35;63.64;102398.72;4991108;28;20117;-47
2022/11/04 06:11:11;;;;;;;2.25;0.70;;;;;;;7.40;63.22;102412.44;4992837;28;20050;-49
2022/11/04 06:13:37;;;;;;;1.92;0.82;;;;;;;7.17;63.66;102421.78;4991249;28;20037;-48
2022/11/04 06:16:03;;;;;;;3.83;0.80;;;;;;;6.96;64.49;102412.16;4993381;28;20065;-46
2022/11/04 06:18:29;;;;;;;2.10;1.10;;;;;;;6.81;64.58;102416.25;4992008;28;20030;-47
2022/11/04 06:21:21;;;;;;;2.50;0.80;;;;;;;6.69;65.45;102406.75;4993263;28;20391;-51
2022/11/04 06:23:48;;;;;;;2.97;0.80;;;;;;;6.46;66.26;102415.03;4990986;28;20034;-51
2022/11/04 06:26:14;;;;;;;1.95;0.70;;;;;;;6.54;66.39;102412.50;4993141;28;20550;-48
2022/11/04 06:28:41;;;;;;;2.50;0.70;;;;;;;6.56;66.43;102417.69;4991937;28;20498;-54
2022/11/04 06:31:09;;;;;;;3.78;0.90;;;;;;;6.42;66.76;102412.78;4992111;28;20042;-53
2022/11/04 06:33:36;;;;;;;4.13;0.90;;;;;;;6.48;67.00;102413.06;4991496;28;20027;-56
2022/11/04 06:36:05;;;;;;;1.30;0.73;;;;;;;6.55;66.51;102419.53;4992911;28;20038;-56
2022/11/04 06:38:33;;;;;;;2.60;0.80;;;;;;;6.59;66.44;102423.56;4991790;28;20105;-55
2022/11/04 06:40:59;;;;;;;2.38;0.85;;;;;;;6.51;66.77;102430.56;4992703;28;20022;-51
2022/11/04 06:43:25;;;;;;;2.08;0.70;;;;;;;6.72;66.14;102422.41;4991088;28;20037;-50
2022/11/04 06:45:55;;;;;;;2.15;0.60;;;;;;;6.97;65.63;102416.50;4992347;28;20089;-46
2022/11/04 06:48:22;;;;;;;4.03;0.70;;;;;;;6.82;64.90;102401.97;4991640;28;20522;-50
2022/11/04 06:50:48;;;;;;;2.35;0.57;;;;;;;6.55;65.97;102406.22;4991597;28;20034;-47
2022/11/04 06:53:14;;;;;;;4.03;1.05;;;;;;;6.30;67.01;102393.47;4990930;28;20034;-46
2022/11/04 06:55:41;;;;;;;2.45;0.95;;;;;;;6.18;67.07;102399.91;4998412;23;20060;-48
2022/11/04 06:58:07;;;;;;;2.08;1.05;;;;;;;6.03;67.74;102402.97;4992558;28;20034;-47
2022/11/04 07:00:34;;;;;;;4.32;0.80;;;;;;;5.99;67.73;102409.53;4991715;28;20493;-47
2022/11/04 07:03:00;;;;;;;3.13;0.85;;;;;;;5.95;68.00;102410.81;4991968;28;20039;-46
2022/11/04 07:05:26;;;;;;;11.50;1.55;;;;;;;6.00;68.13;102416.56;4992511;28;20026;-47
2022/11/04 07:07:52;;;;;;;1.73;0.70;;;;;;;5.97;68.12;102411.50;4990556;28;20033;-48
2022/11/04 07:10:18;;;;;;;2.08;0.82;;;;;;;6.14;67.98;102415.28;4991336;28;20026;-50
2022/11/04 07:12:45;;;;;;;1.13;0.50;;;;;;;6.36;67.14;102424.84;4992266;28;20387;-50
2022/11/04 07:15:11;;;;;;;3.20;0.50;;;;;;;6.42;66.83;102426.09;4990947;28;20026;-46
2022/11/04 07:17:39;;;;;;;3.10;0.60;;;;;;;6.38;66.12;102427.34;4992456;28;20138;-47
2022/11/04 07:20:06;;;;;;;4.00;0.80;;;;;;;6.15;66.27;102430.25;4986951;28;20472;-45
2022/11/04 07:22:32;;;;;;;1.83;0.68;;;;;;;6.03;66.88;102432.22;4972456;28;20526;-45
2022/11/04 07:24:58;;;;;;;3.85;0.73;;;;;;;6.05;66.84;102429.41;4983934;28;20089;-47
2022/11/04 07:27:24;;;;;;;0.60;0.50;;;;;;;6.07;67.05;102416.84;4991325;28;20034;-54
2022/11/04 07:29:50;;;;;;;2.67;0.52;;;;;;;6.19;66.81;102420.19;4992252;28;20056;-47
2022/11/04 07:32:16;;;;;;;1.20;0.55;;;;;;;6.38;65.98;102417.53;4990924;28;20379;-47
2022/11/04 07:34:43;;;;;;;4.22;0.70;;;;;;;6.07;67.06;102408.84;4992067;28;20027;-48
2022/11/04 07:37:09;;;;;;;2.38;0.50;;;;;;;6.15;66.34;102398.34;4991802;28;20022;-50
2022/11/04 07:39:35;;;;;;;1.40;0.60;;;;;;;6.06;67.23;102401.88;4991060;28;20545;-45
2022/11/04 07:42:01;;;;;;;0.85;0.60;;;;;;;5.86;67.59;102402.78;4976171;28;20093;-47
2022/11/04 07:44:27;;;;;;;2.90;0.75;;;;;;;5.76;68.25;102408.91;4989690;28;20034;-46
2022/11/04 07:46:53;;;;;;;1.92;0.80;;;;;;;5.81;68.36;102425.28;4992107;28;20084;-47
2022/11/04 07:49:20;;;;;;;1.42;0.50;;;;;;;6.01;67.71;102428.84;4991140;28;20118;-46
2022/11/04 07:51:47;;;;;;;1.50;0.70;;;;;;;6.24;67.25;102428.59;4992083;28;20030;-46
2022/11/04 07:54:13;;;;;;;1.85;0.57;;;;;;;6.40;66.76;102423.56;4989877;28;20104;-46
2022/11/04 07:56:39;;;;;;;2.35;0.95;;;;;;;6.57;66.17;102436.16;4992064;28;20047;-46
2022/11/04 07:59:06;;;;;;;3.15;0.55;;;;;;;6.59;65.76;102422.72;4990573;28;20041;-46
2022/11/04 08:01:32;;;;;;;2.58;0.90;;;;;;;6.43;66.06;102428.59;4991581;28;20113;-46
2022/11/04 08:03:59;;;;;;;2.03;0.63;;;;;;;6.28;66.96;102430.03;4990957;28;20026;-47
2022/11/04 08:06:26;;;;;;;2.15;0.77;;;;;;;6.51;65.95;102441.22;4992003;28;20015;-49
2022/11/04 08:08:55;;;;;;;1.52;0.77;;;;;;;6.59;65.74;102439.53;4989774;28;20185;-47
2022/11/04 08:11:27;;;;;;;7.32;0.70;;;;;;;6.64;65.55;102436.44;4991857;28;20053;-48
2022/11/04 08:13:54;;;;;;;0.95;0.57;;;;;;;6.65;65.39;102435.47;4990768;28;20337;-45
2022/11/04 08:16:23;;;;;;;2.45;0.60;;;;;;;6.81;65.08;102432.22;4991785;28;20117;-46
2022/11/04 08:18:51;;;;;;;1.80;0.60;;;;;;;6.76;65.18;102437.13;4990614;28;20026;-47
2022/11/04 08:21:19;;;;;;;0.90;0.60;;;;;;;6.07;67.28;102425.66;4990067;28;20035;-45
2022/11/04 08:23:46;;;;;;;2.72;1.30;;;;;;;6.07;67.97;102433.63;4989651;28;20030;-45
2022/11/04 08:26:17;;;;;;;2.67;0.68;;;;;;;6.12;67.96;102429.72;4991898;28;20026;-46
2022/11/04 08:28:43;;;;;;;6.50;0.88;;;;;;;6.21;67.76;102439.50;4991263;28;20022;-45
2022/11/04 08:31:19;;;;;;;1.85;0.90;;;;;;;6.16;67.81;102442.56;4991622;28;20133;-46
2022/11/04 08:33:45;;;;;;;1.02;0.57;;;;;;;6.23;67.60;102443.72;4992518;28;20026;-46
2022/11/04 08:36:15;;;;;;;1.40;0.65;;;;;;;6.39;67.24;102443.19;4994028;28;20032;-46
2022/11/04 08:38:42;;;;;;;6.32;1.05;;;;;;;6.12;67.95;102454.47;4995254;28;20023;-46
2022/11/04 08:41:13;;;;;;;3.08;0.68;;;;;;;6.41;67.09;102457.16;4992359;28;20034;-46
2022/11/04 08:43:40;;;;;;;1.60;0.70;;;;;;;6.49;66.92;102454.63;4994302;28;20154;-47
2022/11/04 08:46:08;;;;;;;2.45;0.70;;;;;;;6.63;66.48;102456.06;4993737;28;20112;-46
2022/11/04 08:48:37;;;;;;;1.50;0.70;;;;;;;6.80;65.95;102462.50;4993796;28;20356;-46
2022/11/04 08:51:05;;;;;;;1.75;0.60;;;;;;;6.86;65.65;102460.09;4992807;28;20037;-48
2022/11/04 08:53:32;;;;;;;1.55;0.70;;;;;;;6.91;65.37;102469.47;4993223;28;20178;-50
2022/11/04 08:55:58;;;;;;;1.60;0.57;;;;;;;6.52;66.67;102459.69;4993910;28;20142;-53
2022/11/04 08:58:24;;;;;;;1.55;0.70;;;;;;;6.29;67.42;102455.63;4994696;28;20514;-48
2022/11/04 09:00:51;;;;;;;1.33;0.52;;;;;;;6.58;66.67;102451.16;4995093;28;20076;-50
2022/11/04 09:03:17;;;;;;;2.80;0.60;;;;;;;6.77;65.94;102460.94;4992568;28;20030;-50
2022/11/04 09:05:46;;;;;;;2.88;0.60;;;;;;;6.88;65.67;102470.59;4994550;28;20061;-49
2022/11/04 09:08:16;;;;;;;1.80;0.63;;;;;;;6.96;65.40;102470.75;4992642;28;20364;-48
2022/11/04 09:10:46;;;;;;;1.02;0.60;;;;;;;7.03;65.04;102474.50;4994749;28;20026;-50
2022/11/04 09:13:14;;;;;;;2.17;0.70;;;;;;;7.01;65.19;102468.50;4993277;28;20514;-47
2022/11/04 09:15:41;;;;;;;3.05;0.88;;;;;;;7.10;64.93;102480.09;4993013;28;20072;-48
2022/11/04 09:18:07;;;;;;;1.88;0.65;;;;;;;7.12;64.46;102476.31;4992830;28;20026;-47
2022/11/04 09:20:37;;;;;;;2.70;0.88;;;;;;;7.13;64.63;102485.97;4992811;28;20026;-49
2022/11/04 09:23:04;;;;;;;3.00;0.80;;;;;;;7.21;64.60;102487.06;4991287;28;20023;-46
2022/11/04 09:25:31;;;;;;;1.60;1.00;;;;;;;7.20;65.09;102485.41;4994310;28;20126;-48
2022/11/04 09:27:58;;;;;;;1.70;1.00;;;;;;;7.29;65.35;102477.41;4992315;28;20026;-49
2022/11/04 09:30:25;;;;;;;1.77;1.02;;;;;;;7.07;66.27;102475.06;4992215;28;20423;-49
2022/11/04 09:32:51;;;;;;;2.72;1.00;;;;;;;7.01;66.29;102486.28;4993967;28;20065;-46
2022/11/04 09:35:18;;;;;;;2.33;1.20;;;;;;;7.31;65.79;102494.06;4990416;28;20050;-46
2022/11/04 09:37:45;;;;;;;3.30;1.00;;;;;;;7.08;66.65;102506.88;4993952;28;20042;-49
2022/11/04 09:40:16;;;;;;;3.28;1.23;;;;;;;7.08;67.04;102506.03;4992153;28;20092;-47
2022/11/04 09:42:51;;;;;;;3.00;1.20;;;;;;;6.97;67.66;102514.16;4993280;28;20038;-46
2022/11/04 09:45:23;;;;;;;2.70;1.10;;;;;;;7.03;67.42;102510.94;4992402;28;20034;-49
2022/11/04 09:47:52;;;;;;;5.40;1.40;;;;;;;7.02;67.30;102518.09;4993924;28;20113;-47
2022/11/04 09:50:24;;;;;;;2.45;1.40;;;;;;;7.02;67.29;102510.09;4991985;28;20029;-47
2022/11/04 09:53:04;;;;;;;2.95;1.08;;;;;;;6.96;67.36;102507.16;4993067;28;20406;-50
2022/11/04 09:55:34;;;;;;;3.35;1.40;;;;;;;6.95;67.20;102509.00;4992034;28;20125;-46
2022/11/04 09:58:02;;;;;;;1.77;1.10;;;;;;;6.90;67.45;102500.59;4993733;28;20474;-46
2022/11/04 10:00:34;;;;;;;2.65;0.82;;;;;;;6.87;67.85;102503.50;4992745;28;20133;-46
2022/11/04 10:03:15;;;;;;;5.00;0.95;;;;;;;6.40;69.61;102508.69;4973879;28;20043;-49
2022/11/04 10:06:01;;;;;;;3.40;1.05;;;;;;;6.52;69.80;102512.06;4975730;28;20435;-47
2022/11/04 10:08:45;;;;;;;4.13;1.20;;;;;;;6.69;68.97;102505.22;4990751;28;20126;-46
2022/11/04 10:11:47;;;;;;;3.40;1.00;;;;;;;6.82;68.20;102497.78;4993201;28;20069;-46
2022/11/04 10:14:39;;;;;;;1.95;1.00;;;;;;;6.73;68.89;102498.63;4967332;28;20121;-48
2022/11/04 10:17:27;;;;;;;3.50;1.00;;;;;;;6.35;70.29;102498.47;4991608;28;20062;-46
2022/11/04 10:20:13;;;;;;;2.67;1.13;;;;;;;6.51;69.76;102489.94;4993587;28;20467;-47
2022/11/04 10:23:01;;;;;;;5.65;0.90;;;;;;;6.30;70.37;102498.03;4990395;28;20040;-49
2022/11/04 10:25:37;;;;;;;3.00;1.00;;;;;;;5.87;72.12;102500.94;4993405;28;20030;-46
2022/11/04 10:28:09;;;;;;;3.83;1.13;;;;;;;5.62;73.54;102506.75;4991162;28;20057;-48
2022/11/04 10:30:35;;;;;;;3.33;1.10;;;;;;;5.56;74.10;102510.75;4992255;28;20501;-46
2022/11/04 10:33:22;;;;;;;3.30;1.08;;;;;;;5.85;73.19;102510.88;4992693;28;20038;-49
2022/11/04 10:36:02;;;;;;;2.92;0.98;;;;;;;6.04;72.69;102510.13;4990968;28;20042;-47
2022/11/04 10:38:40;;;;;;;1.45;1.00;;;;;;;6.17;71.88;102515.22;4990973;28;20161;-46
2022/11/04 10:41:25;;;;;;;4.45;1.17;;;;;;;6.11;72.48;102516.59;4982688;28;20027;-46
2022/11/04 10:44:01;;;;;;;3.50;1.13;;;;;;;6.16;72.66;102526.81;4980018;28;20034;-47
2022/11/04 10:47:05;;;;;;;4.22;1.30;;;;;;;6.29;72.07;102528.25;4992661;28;20260;-46
2022/11/04 10:49:55;;;;;;;4.70;1.20;;;;;;;6.39;71.71;102520.31;4991133;28;20052;-49
2022/11/04 10:52:22;;;;;;;3.53;0.95;;;;;;;6.52;70.89;102528.84;4992387;28;20026;-45
2022/11/04 10:54:49;;;;;;;3.50;1.08;;;;;;;6.53;71.06;102521.72;4989058;28;20026;-49
2022/11/04 10:57:24;;;;;;;4.72;1.08;;;;;;;6.59;70.89;102523.81;4991998;28;20058;-49
2022/11/04 11:00:01;;;;;;;3.72;1.45;;;;;;;6.70;70.86;102522.84;4990998;28;20023;-46
2022/11/04 11:02:36;;;;;;;2.38;1.00;;;;;;;6.86;70.34;102515.16;4992127;28;20129;-49
2022/11/04 11:05:17;;;;;;;6.47;1.40;;;;;;;7.03;70.07;102501.13;4990712;28;20501;-46
2022/11/04 11:07:45;;;;;;;8.27;1.48;;;;;;;7.02;70.54;102510.09;4992433;28;20026;-47
2022/11/04 11:10:32;;;;;;;3.42;1.60;;;;;;;6.86;71.28;102509.81;4989951;28;20538;-46
2022/11/04 11:13:02;;;;;;;4.93;1.50;;;;;;;6.90;71.44;102516.56;4992298;28;20383;-46
2022/11/04 11:15:41;;;;;;;2.58;1.17;;;;;;;6.98;71.49;102524.66;4990625;28;20035;-47
2022/11/04 11:18:07;;;;;;;3.90;1.40;;;;;;;6.96;71.83;102521.31;4992492;28;20026;-45
2022/11/04 11:20:36;;;;;;;3.15;1.52;;;;;;;7.29;71.25;102501.38;4990216;28;20478;-45
2022/11/04 11:23:08;;;;;;;4.55;1.17;;;;;;;7.56;70.50;102494.44;4992066;28;20390;-49
2022/11/04 11:25:44;;;;;;;3.97;1.33;;;;;;;7.81;69.94;102476.91;4991798;28;20038;-45
2022/11/04 11:28:20;;;;;;;4.63;1.52;;;;;;;7.80;70.05;102475.25;4992310;28;20038;-47
2022/11/04 11:30:46;;;;;;;6.30;1.75;;;;;;;7.88;70.15;102464.66;4990752;28;20471;-45
2022/11/04 11:33:25;;;;;;;3.13;1.55;;;;;;;8.06;69.86;102470.91;4991990;28;20042;-48
2022/11/04 11:35:59;;;;;;;4.25;1.85;;;;;;;7.88;70.35;102475.31;4990415;28;20458;-48
2022/11/04 11:38:27;;;;;;;3.20;1.67;;;;;;;7.89;70.64;102477.88;4992134;28;20077;-45
2022/11/04 11:41:04;;;;;;;5.35;1.70;;;;;;;7.94;70.60;102482.75;4990020;28;20521;-45
2022/11/04 11:43:34;;;;;;;5.90;1.98;;;;;;;7.94;70.58;102483.59;4990986;28;20053;-45
2022/11/04 11:46:02;;;;;;;3.20;1.48;;;;;;;8.00;70.03;102466.16;4990870;28;20037;-46
2022/11/04 11:48:41;;;;;;;3.35;1.55;;;;;;;8.13;70.03;102463.13;4990474;28;20030;-47
2022/11/04 11:51:13;;;;;;;3.63;1.40;;;;;;;8.26;69.68;102462.75;4991940;28;20387;-47
2022/11/04 11:53:56;;;;;;;5.35;1.40;;;;;;;8.20;69.84;102462.38;4991449;28;20023;-48
2022/11/04 11:56:25;;;;;;;4.38;1.95;;;;;;;8.33;69.70;102464.69;4992966;28;20073;-47
2022/11/04 11:59:04;;;;;;;3.10;1.40;;;;;;;8.38;69.41;102466.91;4991482;28;20038;-49
2022/11/04 12:01:45;;;;;;;4.40;1.38;;;;;;;8.51;69.32;102470.06;4992033;28;20038;-46
2022/11/04 12:04:12;;;;;;;3.25;1.55;;;;;;;8.57;69.20;102487.28;4992272;28;20419;-46
2022/11/04 12:07:02;;;;;;;5.93;1.92;;;;;;;8.50;69.44;102489.72;4989682;28;20490;-46
2022/11/04 12:09:50;;;;;;;3.65;1.40;;;;;;;8.47;69.52;102484.69;4994693;28;20048;-47
2022/11/04 12:12:31;;;;;;;10.77;2.38;;;;;;;8.48;69.53;102505.03;4989960;28;20509;-45
2022/11/04 12:15:21;;;;;;;4.90;1.70;;;;;;;8.48;69.43;102498.88;4994590;28;20030;-46